Time;durP1;ratioP1;P1;durP2;ratioP2;P2;SDS_P1;SDS_P2;PMS_P1;PMS_P2;Temp;Humidity;BMP_temperature;BMP_pressure;BME280_temperature;BME280_humidity;BME280_pressure;Samples;Min_cycle;Max_cycle;Signal;HPM_P1;HPM_P2
2022/01/07 00:00:54;;;;;;;21.20;7.45;;;4.40;99.90;;;;;;5116442;28;20502;-66
2022/01/07 00:03:22;;;;;;;20.08;8.80;;;4.40;99.90;;;;;;5116533;28;20498;-66
2022/01/07 00:05:48;;;;;;;15.43;7.50;;;4.30;99.90;;;;;;5116168;28;20491;-66
2022/01/07 00:08:14;;;;;;;17.55;8.05;;;4.40;99.90;;;;;;5116308;28;20130;-66
2022/01/07 00:10:40;;;;;;;19.13;7.53;;;4.30;99.90;;;;;;5116775;28;20035;-67
2022/01/07 00:13:05;;;;;;;23.60;8.48;;;4.30;99.90;;;;;;5116860;27;20039;-66
2022/01/07 00:15:31;;;;;;;19.42;9.30;;;4.30;99.90;;;;;;5114681;28;20108;-66
2022/01/07 00:17:58;;;;;;;13.68;7.25;;;4.30;99.90;;;;;;5116346;28;20082;-66
2022/01/07 00:20:25;;;;;;;20.33;7.43;;;4.30;99.90;;;;;;5116435;28;20040;-66
2022/01/07 00:22:51;;;;;;;13.02;6.93;;;4.30;99.90;;;;;;5115912;28;20031;-66
2022/01/07 00:25:18;;;;;;;15.20;6.60;;;4.20;99.90;;;;;;5116204;28;20572;-66
2022/01/07 00:27:44;;;;;;;21.05;8.38;;;4.30;99.90;;;;;;5115489;28;20035;-66
2022/01/07 00:30:11;;;;;;;16.85;7.00;;;4.20;99.90;;;;;;5115956;28;20036;-66
2022/01/07 00:32:38;;;;;;;24.08;7.68;;;4.30;99.90;;;;;;5115939;28;20058;-66
2022/01/07 00:35:04;;;;;;;15.10;7.43;;;4.30;99.90;;;;;;5115935;28;20368;-66
2022/01/07 00:37:30;;;;;;;23.92;7.15;;;4.30;99.90;;;;;;5115153;28;20039;-66
2022/01/07 00:39:55;;;;;;;15.68;7.65;;;4.20;99.90;;;;;;5115843;28;20038;-66
2022/01/07 00:42:21;;;;;;;16.95;7.63;;;4.30;99.90;;;;;;5115508;28;20032;-66
2022/01/07 00:44:47;;;;;;;19.75;6.95;;;4.30;99.90;;;;;;5116564;28;20032;-66
2022/01/07 00:47:12;;;;;;;18.35;6.68;;;4.20;99.90;;;;;;5115061;28;20047;-66
2022/01/07 00:49:38;;;;;;;17.85;7.63;;;4.20;99.90;;;;;;5114647;28;20039;-66
2022/01/07 00:52:04;;;;;;;17.48;7.05;;;4.20;99.90;;;;;;5115439;28;20043;-66
2022/01/07 00:54:30;;;;;;;16.08;6.90;;;4.20;99.90;;;;;;5115805;28;20576;-66
2022/01/07 00:56:56;;;;;;;12.05;6.45;;;4.20;99.90;;;;;;5114732;28;20035;-66
2022/01/07 00:59:21;;;;;;;15.85;6.65;;;4.20;99.90;;;;;;5115238;28;20062;-66
2022/01/07 01:01:47;;;;;;;14.63;6.18;;;4.10;99.90;;;;;;5115389;28;20043;-66
2022/01/07 01:04:13;;;;;;;12.98;7.03;;;4.10;99.90;;;;;;5115100;28;20408;-66
2022/01/07 01:06:41;;;;;;;18.52;7.35;;;4.00;99.90;;;;;;5114879;28;20080;-66
2022/01/07 01:09:08;;;;;;;13.18;6.65;;;4.00;99.90;;;;;;5115387;28;20035;-66
2022/01/07 01:11:34;;;;;;;14.55;6.85;;;4.00;99.90;;;;;;5115167;28;20437;-66
2022/01/07 01:14:00;;;;;;;15.98;7.55;;;4.00;99.90;;;;;;5115115;28;20051;-66
2022/01/07 01:16:25;;;;;;;19.58;7.25;;;4.00;99.90;;;;;;5114620;28;20032;-66
2022/01/07 01:18:51;;;;;;;14.65;6.75;;;3.90;99.90;;;;;;5114996;28;20032;-66
2022/01/07 01:21:16;;;;;;;18.80;7.25;;;3.90;99.90;;;;;;5115162;28;20124;-66
2022/01/07 01:23:45;;;;;;;11.70;6.53;;;3.90;99.90;;;;;;5114784;28;20031;-66
2022/01/07 01:26:12;;;;;;;15.63;7.90;;;3.90;99.90;;;;;;5114266;28;20491;-66
2022/01/07 01:28:38;;;;;;;19.27;7.18;;;3.80;99.90;;;;;;5114931;28;20441;-66
2022/01/07 01:31:03;;;;;;;18.45;7.07;;;3.80;99.90;;;;;;5114854;28;20096;-66
2022/01/07 01:33:29;;;;;;;15.93;7.32;;;3.80;99.90;;;;;;5114827;28;20499;-66
2022/01/07 01:35:54;;;;;;;21.88;7.05;;;3.80;99.90;;;;;;5114236;28;20044;-66
2022/01/07 01:38:20;;;;;;;22.42;7.78;;;3.80;99.90;;;;;;5114116;28;20032;-66
2022/01/07 01:40:46;;;;;;;15.38;7.25;;;3.80;99.90;;;;;;5115023;28;20046;-66
2022/01/07 01:43:11;;;;;;;18.80;7.35;;;3.80;99.90;;;;;;5114410;28;20049;-66
2022/01/07 01:45:37;;;;;;;23.00;7.65;;;3.80;99.90;;;;;;5114112;28;20047;-66
2022/01/07 01:48:03;;;;;;;14.68;7.60;;;3.80;99.90;;;;;;5114501;28;20043;-66
2022/01/07 01:50:29;;;;;;;19.00;8.07;;;3.70;99.90;;;;;;5114251;28;20038;-66
2022/01/07 01:52:56;;;;;;;15.85;7.15;;;3.70;99.90;;;;;;5113354;28;20058;-67
2022/01/07 01:55:25;;;;;;;17.13;6.85;;;3.80;99.90;;;;;;5114822;28;20466;-66
2022/01/07 01:57:52;;;;;;;13.93;6.90;;;3.80;99.90;;;;;;5112847;28;20046;-66
2022/01/07 02:00:23;;;;;;;15.23;7.65;;;3.80;99.90;;;;;;5112619;28;20046;-66
2022/01/07 02:02:49;;;;;;;13.15;6.63;;;3.80;99.90;;;;;;5113962;28;20376;-66
2022/01/07 02:05:15;;;;;;;13.23;6.80;;;3.80;99.90;;;;;;5114209;28;20042;-66
2022/01/07 02:07:41;;;;;;;10.98;7.10;;;3.80;99.90;;;;;;5113670;28;20040;-66
2022/01/07 02:10:09;;;;;;;19.55;8.18;;;3.80;99.90;;;;;;5114141;27;20043;-66
2022/01/07 02:12:35;;;;;;;16.38;7.95;;;3.70;99.90;;;;;;5112732;28;20396;-66
2022/01/07 02:15:01;;;;;;;16.30;7.65;;;3.70;99.90;;;;;;5113988;28;20031;-66
2022/01/07 02:17:27;;;;;;;13.18;7.65;;;3.60;99.90;;;;;;5113883;28;20045;-66
2022/01/07 02:19:54;;;;;;;19.80;8.10;;;3.60;99.90;;;;;;5114680;28;20115;-66
2022/01/07 02:22:20;;;;;;;14.65;7.93;;;3.60;99.90;;;;;;5113186;28;20527;-66
2022/01/07 02:24:48;;;;;;;12.05;6.85;;;3.60;99.90;;;;;;5114905;28;20115;-66
2022/01/07 02:27:15;;;;;;;12.70;7.72;;;3.60;99.90;;;;;;5095373;28;20483;-66
2022/01/07 02:29:44;;;;;;;13.07;7.38;;;3.60;99.90;;;;;;5112792;28;20395;-66
2022/01/07 02:32:09;;;;;;;13.88;8.18;;;3.60;99.90;;;;;;5113810;28;20084;-66
2022/01/07 02:34:35;;;;;;;13.43;7.85;;;3.60;99.90;;;;;;5113961;28;20074;-66
2022/01/07 02:37:01;;;;;;;17.48;7.70;;;3.60;99.90;;;;;;5113169;28;20043;-66
2022/01/07 02:39:27;;;;;;;13.60;9.95;;;3.50;99.90;;;;;;5113836;28;20063;-66
2022/01/07 02:41:52;;;;;;;11.40;8.35;;;3.50;99.90;;;;;;5113750;28;20034;-66
2022/01/07 02:44:18;;;;;;;11.95;7.78;;;3.60;99.90;;;;;;5113887;28;20498;-66
2022/01/07 02:46:45;;;;;;;14.27;8.07;;;3.50;99.90;;;;;;5113565;28;20130;-66
2022/01/07 02:49:13;;;;;;;15.60;9.00;;;3.50;99.90;;;;;;5114335;28;20044;-66
2022/01/07 02:51:39;;;;;;;11.38;7.72;;;3.50;99.90;;;;;;5113525;28;20051;-66
2022/01/07 02:54:06;;;;;;;13.18;8.52;;;3.40;99.90;;;;;;5113546;28;20491;-66
2022/01/07 02:56:31;;;;;;;14.82;9.35;;;3.50;99.90;;;;;;5113218;28;20032;-66
2022/01/07 02:58:57;;;;;;;15.38;9.02;;;3.50;99.90;;;;;;5114051;28;20479;-66
2022/01/07 03:01:23;;;;;;;13.27;8.55;;;3.50;99.90;;;;;;5113971;28;20036;-66
2022/01/07 03:03:48;;;;;;;14.18;8.63;;;3.50;99.90;;;;;;5113479;28;20395;-66
2022/01/07 03:06:14;;;;;;;18.00;9.73;;;3.50;99.90;;;;;;5113614;28;20044;-66
2022/01/07 03:08:40;;;;;;;17.73;8.48;;;3.50;99.90;;;;;;5113557;28;20047;-66
2022/01/07 03:11:05;;;;;;;17.23;8.48;;;3.50;99.90;;;;;;5113542;28;20076;-66
2022/01/07 03:13:31;;;;;;;16.48;8.93;;;3.50;99.90;;;;;;5115627;28;20035;-66
2022/01/07 03:15:56;;;;;;;13.18;9.02;;;3.40;99.90;;;;;;5117046;28;20410;-66
2022/01/07 03:18:22;;;;;;;16.70;8.57;;;3.40;99.90;;;;;;5117104;28;20044;-66
2022/01/07 03:20:47;;;;;;;14.73;9.05;;;3.50;99.90;;;;;;5117854;28;20112;-66
2022/01/07 03:23:13;;;;;;;15.20;8.95;;;3.50;99.90;;;;;;5117345;28;20039;-66
2022/01/07 03:25:40;;;;;;;15.73;10.00;;;3.50;99.90;;;;;;5117103;28;20044;-66
2022/01/07 03:28:08;;;;;;;13.45;9.05;;;3.50;99.90;;;;;;5117157;28;20391;-66
2022/01/07 03:30:33;;;;;;;14.70;9.70;;;3.40;99.90;;;;;;5117130;28;20458;-66
2022/01/07 03:32:59;;;;;;;16.58;10.00;;;3.40;99.90;;;;;;5117754;28;20169;-66
2022/01/07 03:35:24;;;;;;;22.10;11.07;;;3.50;99.90;;;;;;5115910;28;20051;-66
2022/01/07 03:37:50;;;;;;;14.50;10.15;;;3.40;99.90;;;;;;5116707;28;20096;-66
2022/01/07 03:40:17;;;;;;;17.88;11.25;;;3.40;99.90;;;;;;5117042;28;20138;-66
2022/01/07 03:42:44;;;;;;;15.50;10.15;;;3.50;99.90;;;;;;5117259;28;20050;-66
2022/01/07 03:45:11;;;;;;;14.65;11.00;;;3.40;99.90;;;;;;5116957;27;20089;-66
2022/01/07 03:47:37;;;;;;;13.65;8.50;;;3.50;99.90;;;;;;5116271;28;20035;-66
2022/01/07 03:50:06;;;;;;;15.57;9.98;;;3.50;99.90;;;;;;5117291;28;20082;-66
2022/01/07 03:52:32;;;;;;;16.10;9.80;;;3.40;99.90;;;;;;5116989;28;20078;-66
2022/01/07 03:54:57;;;;;;;17.35;10.55;;;3.50;99.90;;;;;;5116606;28;20043;-66
2022/01/07 03:57:23;;;;;;;14.73;10.13;;;3.50;99.90;;;;;;5116332;28;20054;-66
2022/01/07 03:59:50;;;;;;;15.65;9.85;;;3.40;99.90;;;;;;5117234;28;20036;-66
2022/01/07 04:02:17;;;;;;;15.98;10.55;;;3.50;99.90;;;;;;5116992;28;20039;-66
2022/01/07 04:04:42;;;;;;;15.50;9.65;;;3.40;99.90;;;;;;5115141;28;20543;-66
2022/01/07 04:07:08;;;;;;;14.57;10.27;;;3.50;99.90;;;;;;5116205;28;20119;-66
2022/01/07 04:09:33;;;;;;;16.65;10.35;;;3.50;99.90;;;;;;5098018;28;20127;-66
2022/01/07 04:12:00;;;;;;;15.77;10.32;;;3.50;99.90;;;;;;5116214;28;20100;-66
2022/01/07 04:14:26;;;;;;;14.90;10.25;;;3.50;99.90;;;;;;5116539;28;20124;-66
2022/01/07 04:16:52;;;;;;;18.88;10.80;;;3.50;99.90;;;;;;5116726;28;20059;-66
2022/01/07 04:19:17;;;;;;;15.20;11.45;;;3.50;99.90;;;;;;5116894;28;20483;-66
2022/01/07 04:21:43;;;;;;;17.15;11.32;;;3.50;99.90;;;;;;5116189;28;20491;-66
2022/01/07 04:24:09;;;;;;;17.15;10.27;;;3.50;99.90;;;;;;5115756;28;20076;-66
2022/01/07 04:26:34;;;;;;;19.00;10.50;;;3.40;99.90;;;;;;5115616;28;20057;-66
2022/01/07 04:29:00;;;;;;;15.55;11.45;;;3.50;99.90;;;;;;5115803;28;20043;-66
2022/01/07 04:31:26;;;;;;;14.73;11.27;;;3.50;99.90;;;;;;5115821;28;20128;-66
2022/01/07 04:33:51;;;;;;;14.77;10.57;;;3.50;99.90;;;;;;5116464;28;20123;-66
2022/01/07 04:36:17;;;;;;;20.30;12.43;;;3.50;99.90;;;;;;5115599;28;20039;-66
2022/01/07 04:38:44;;;;;;;15.55;11.13;;;3.50;99.90;;;;;;5115551;28;20455;-66
2022/01/07 04:41:09;;;;;;;19.08;11.75;;;3.50;99.90;;;;;;5114687;28;20391;-66
2022/01/07 04:43:35;;;;;;;15.25;11.10;;;3.50;99.90;;;;;;5116143;28;20031;-66
2022/01/07 04:46:00;;;;;;;15.32;10.70;;;3.50;99.90;;;;;;5115163;28;20115;-66
2022/01/07 04:48:26;;;;;;;16.80;11.27;;;3.50;99.90;;;;;;5115366;28;20031;-66
2022/01/07 04:50:52;;;;;;;17.35;10.95;;;3.50;99.90;;;;;;5115271;28;20526;-66
2022/01/07 04:53:17;;;;;;;15.40;11.02;;;3.50;99.90;;;;;;5115715;28;20122;-66
2022/01/07 04:55:44;;;;;;;19.08;11.13;;;3.60;99.90;;;;;;5115160;28;20078;-66
2022/01/07 04:58:12;;;;;;;18.08;10.60;;;3.60;99.90;;;;;;5114031;28;20089;-66
2022/01/07 05:00:39;;;;;;;16.17;10.95;;;3.60;99.90;;;;;;5116134;28;20036;-66
2022/01/07 05:03:05;;;;;;;14.38;10.05;;;3.60;99.90;;;;;;5114657;28;20096;-66
2022/01/07 05:05:31;;;;;;;17.30;11.70;;;3.60;99.90;;;;;;5115171;28;20118;-65
2022/01/07 05:07:57;;;;;;;16.35;10.68;;;3.50;99.90;;;;;;5115239;28;20583;-66
2022/01/07 05:10:23;;;;;;;18.42;11.60;;;3.60;99.90;;;;;;5113886;28;20039;-66
2022/01/07 05:12:49;;;;;;;15.75;9.93;;;3.60;99.90;;;;;;5114968;28;20036;-66
2022/01/07 05:15:16;;;;;;;17.40;9.90;;;3.60;99.90;;;;;;5115461;28;20035;-66
2022/01/07 05:17:43;;;;;;;15.82;10.35;;;3.70;99.90;;;;;;5113143;28;20059;-66
2022/01/07 05:20:09;;;;;;;15.75;11.52;;;3.70;99.90;;;;;;5114781;28;20039;-65
2022/01/07 05:22:35;;;;;;;13.93;10.23;;;3.70;99.90;;;;;;5114965;28;20035;-65
2022/01/07 05:25:01;;;;;;;13.73;10.50;;;3.60;99.90;;;;;;5113999;28;20076;-65
2022/01/07 05:27:26;;;;;;;15.27;9.77;;;3.70;99.90;;;;;;5113375;28;20089;-65
2022/01/07 05:29:52;;;;;;;14.80;10.18;;;3.70;99.90;;;;;;5115672;28;20044;-65
2022/01/07 05:32:19;;;;;;;15.27;10.07;;;3.70;99.90;;;;;;5113570;28;20102;-66
2022/01/07 05:34:45;;;;;;;16.35;9.70;;;3.70;99.90;;;;;;5114746;28;20407;-66
2022/01/07 05:37:11;;;;;;;14.38;9.70;;;3.70;99.90;;;;;;5113482;28;20046;-66
2022/01/07 05:39:37;;;;;;;19.70;11.02;;;3.70;99.90;;;;;;5114418;28;20043;-66
2022/01/07 05:42:03;;;;;;;14.82;10.13;;;3.70;99.90;;;;;;5113206;28;20040;-66
2022/01/07 05:44:29;;;;;;;13.35;9.73;;;3.70;99.90;;;;;;5113336;28;20073;-65
2022/01/07 05:46:55;;;;;;;13.90;10.07;;;3.70;99.90;;;;;;5114019;28;20075;-66
2022/01/07 05:49:20;;;;;;;13.70;9.20;;;3.70;99.90;;;;;;5114601;28;20491;-66
2022/01/07 05:51:46;;;;;;;13.07;9.63;;;3.70;99.90;;;;;;5112908;28;20044;-66
2022/01/07 05:54:12;;;;;;;14.65;9.48;;;3.70;99.90;;;;;;5114426;28;20034;-66
2022/01/07 05:56:38;;;;;;;15.55;9.80;;;3.70;99.90;;;;;;5095526;28;20070;-66
2022/01/07 05:59:04;;;;;;;14.25;10.18;;;3.70;99.90;;;;;;5113205;28;20391;-66
2022/01/07 06:01:30;;;;;;;17.00;10.27;;;3.70;99.90;;;;;;5114405;28;20042;-66
2022/01/07 06:03:56;;;;;;;14.65;9.90;;;3.80;99.90;;;;;;5114427;28;20036;-66
2022/01/07 06:06:22;;;;;;;14.00;10.32;;;3.70;99.90;;;;;;5113823;28;20042;-66
2022/01/07 06:08:47;;;;;;;14.52;9.80;;;3.70;99.90;;;;;;5114217;27;20048;-65
2022/01/07 06:11:13;;;;;;;13.73;9.98;;;3.70;99.90;;;;;;5113936;28;20083;-66
2022/01/07 06:13:40;;;;;;;14.77;9.65;;;3.80;99.90;;;;;;5113875;28;20493;-65
2022/01/07 06:16:06;;;;;;;16.92;10.27;;;3.70;99.90;;;;;;5113737;28;20043;-65
2022/01/07 06:18:32;;;;;;;11.73;10.02;;;3.70;99.90;;;;;;5113644;28;20039;-65
2022/01/07 06:20:57;;;;;;;15.65;10.05;;;3.80;99.90;;;;;;5113971;27;20042;-66
2022/01/07 06:23:23;;;;;;;14.50;10.70;;;3.80;99.90;;;;;;5113720;28;20403;-66
2022/01/07 06:25:49;;;;;;;13.80;10.27;;;3.80;99.90;;;;;;5112556;28;20043;-66
2022/01/07 06:28:16;;;;;;;14.55;10.50;;;3.80;99.90;;;;;;5113780;28;20114;-66
2022/01/07 06:30:42;;;;;;;13.48;10.30;;;3.90;99.90;;;;;;5113908;28;20067;-66
2022/01/07 06:33:08;;;;;;;13.40;10.02;;;3.90;99.90;;;;;;5113935;28;20035;-66
2022/01/07 06:35:33;;;;;;;15.15;10.30;;;3.80;99.90;;;;;;5113435;28;20576;-66
2022/01/07 06:37:59;;;;;;;14.07;10.05;;;3.80;99.90;;;;;;5113871;28;20122;-66
2022/01/07 06:40:25;;;;;;;13.90;9.57;;;3.80;99.90;;;;;;5114159;28;20043;-66
2022/01/07 06:42:51;;;;;;;14.07;10.35;;;3.80;99.90;;;;;;5112429;28;20032;-66
2022/01/07 06:45:17;;;;;;;14.63;10.10;;;3.80;99.90;;;;;;5112394;28;20032;-66
2022/01/07 06:47:43;;;;;;;14.35;10.18;;;3.90;99.90;;;;;;5114527;28;20040;-66
2022/01/07 06:50:09;;;;;;;15.85;10.88;;;3.90;99.90;;;;;;5118253;28;20049;-66
2022/01/07 06:52:35;;;;;;;14.90;10.52;;;3.90;99.90;;;;;;5118251;28;20046;-66
2022/01/07 06:55:01;;;;;;;13.52;10.50;;;3.90;99.90;;;;;;5117706;28;20037;-66
2022/01/07 06:57:27;;;;;;;18.42;11.70;;;3.80;99.90;;;;;;5117315;28;20047;-66
2022/01/07 06:59:52;;;;;;;15.68;10.88;;;3.80;99.90;;;;;;5117723;28;20514;-66
2022/01/07 07:02:18;;;;;;;15.25;10.90;;;3.80;99.90;;;;;;5117732;28;20031;-66
2022/01/07 07:04:46;;;;;;;17.17;10.35;;;3.70;99.90;;;;;;5116373;28;20044;-66
2022/01/07 07:07:12;;;;;;;16.08;11.20;;;3.80;99.90;;;;;;5117063;27;20048;-66
2022/01/07 07:09:38;;;;;;;19.52;11.40;;;3.80;99.90;;;;;;5118044;28;20043;-66
2022/01/07 07:12:04;;;;;;;15.00;10.55;;;3.80;99.90;;;;;;5117205;28;20110;-65
2022/01/07 07:14:29;;;;;;;16.15;10.93;;;3.80;99.90;;;;;;5117417;28;20035;-66
2022/01/07 07:16:55;;;;;;;16.45;10.57;;;3.80;99.90;;;;;;5116801;28;20395;-66
2022/01/07 07:19:22;;;;;;;14.50;10.60;;;3.80;99.90;;;;;;5117598;28;20043;-67
2022/01/07 07:21:48;;;;;;;16.02;9.85;;;3.90;99.90;;;;;;5116030;28;20053;-66
2022/01/07 07:24:14;;;;;;;14.25;10.80;;;3.90;99.90;;;;;;5116268;28;20046;-67
2022/01/07 07:26:39;;;;;;;15.70;11.20;;;3.90;99.90;;;;;;5116862;28;20035;-67
2022/01/07 07:29:05;;;;;;;15.38;11.02;;;4.00;99.90;;;;;;5117411;28;20036;-67
2022/01/07 07:31:32;;;;;;;16.08;11.77;;;4.00;99.90;;;;;;5116813;28;20035;-66
2022/01/07 07:34:20;;;;;;;15.48;11.75;;;3.90;99.90;;;;;;5117437;28;20169;-66
2022/01/07 07:36:45;;;;;;;17.63;11.88;;;3.90;99.90;;;;;;5116684;28;20042;-66
2022/01/07 07:39:12;;;;;;;13.00;11.38;;;3.90;99.90;;;;;;5116705;28;20044;-66
2022/01/07 07:41:41;;;;;;;17.70;11.93;;;3.90;99.90;;;;;;5116681;28;20491;-67
2022/01/07 07:44:07;;;;;;;17.55;14.07;;;3.90;99.90;;;;;;5116647;28;20495;-66
2022/01/07 07:46:34;;;;;;;16.50;12.05;;;4.00;99.90;;;;;;5116512;28;20139;-65
2022/01/07 07:49:02;;;;;;;17.35;12.02;;;4.00;99.90;;;;;;5117199;28;20156;-67
2022/01/07 07:51:28;;;;;;;16.55;12.35;;;4.00;99.90;;;;;;5116957;28;20154;-67
2022/01/07 07:53:54;;;;;;;24.38;14.00;;;4.10;99.90;;;;;;5116822;28;20057;-66
2022/01/07 07:56:20;;;;;;;17.25;12.45;;;4.10;99.90;;;;;;5116200;28;20550;-67
2022/01/07 07:58:46;;;;;;;20.30;13.43;;;4.10;99.90;;;;;;5114604;28;20055;-67
2022/01/07 08:01:13;;;;;;;20.20;12.80;;;4.10;99.90;;;;;;5116528;28;20032;-67
2022/01/07 08:03:39;;;;;;;17.00;13.13;;;4.10;99.90;;;;;;5116429;28;20032;-66
2022/01/07 08:06:05;;;;;;;19.42;13.27;;;4.10;99.90;;;;;;5116217;28;20119;-68
2022/01/07 08:08:34;;;;;;;20.50;13.43;;;4.10;99.90;;;;;;5116492;28;20114;-67
2022/01/07 08:11:03;;;;;;;20.50;13.23;;;4.10;99.90;;;;;;5116223;28;20035;-67
2022/01/07 08:15:58;;;;;;;22.58;14.23;;;4.20;99.90;;;;;;5116383;28;20075;-67
2022/01/07 08:16:19;;;;;;;22.05;13.93;;;4.10;99.90;;;;;;5115512;28;20514;-66
2022/01/07 08:18:53;;;;;;;19.52;14.70;;;4.20;99.90;;;;;;5116655;28;20036;-67
2022/01/07 08:21:19;;;;;;;;;;;4.20;99.90;;;;;;5116751;28;20048;-67
2022/01/07 08:23:46;;;;;;;19.90;12.57;;;4.20;99.90;;;;;;5116392;28;19919;-67
2022/01/07 08:26:13;;;;;;;18.35;13.45;;;4.20;99.90;;;;;;5116122;28;20046;-67
2022/01/07 08:28:45;;;;;;;22.67;14.73;;;4.20;99.90;;;;;;5116774;28;20058;-67
2022/01/07 08:36:26;;;;;;;22.15;14.95;;;4.30;99.90;;;;;;5115587;28;20508;-66
2022/01/07 08:38:52;;;;;;;26.17;16.40;;;4.40;99.90;;;;;;5116287;28;20040;-67
2022/01/07 08:41:19;;;;;;;26.48;17.02;;;4.40;99.90;;;;;;5115772;28;20046;-66
2022/01/07 08:43:45;;;;;;;25.45;17.30;;;4.40;99.90;;;;;;5115813;28;20088;-67
2022/01/07 08:46:11;;;;;;;26.88;18.20;;;4.40;99.90;;;;;;5115638;28;20110;-67
2022/01/07 08:48:38;;;;;;;32.10;17.83;;;4.40;99.90;;;;;;5114647;28;20039;-66
2022/01/07 08:51:05;;;;;;;31.83;21.23;;;4.40;99.90;;;;;;5116438;28;20046;-67
2022/01/07 08:53:31;;;;;;;29.08;18.40;;;4.50;99.90;;;;;;5115762;28;20055;-67
2022/01/07 08:55:58;;;;;;;26.40;18.08;;;4.50;99.90;;;;;;5114808;28;20035;-67
2022/01/07 08:58:23;;;;;;;30.05;19.00;;;4.50;99.90;;;;;;5096687;28;20047;-67
2022/01/07 09:00:49;;;;;;;25.20;16.83;;;4.60;99.90;;;;;;5093984;28;20024;-66
2022/01/07 09:03:15;;;;;;;26.80;18.17;;;4.50;99.90;;;;;;5093607;28;20075;-66
2022/01/07 09:05:41;;;;;;;27.83;19.02;;;4.60;99.90;;;;;;5094497;28;20541;-67
2022/01/07 09:08:09;;;;;;;27.02;19.33;;;4.70;99.90;;;;;;5095178;28;20036;-67
2022/01/07 09:10:35;;;;;;;33.35;20.08;;;4.70;99.90;;;;;;5093705;28;20552;-67
2022/01/07 09:13:00;;;;;;;27.58;20.42;;;4.80;99.90;;;;;;5093869;28;20048;-67
2022/01/07 09:15:26;;;;;;;32.33;20.60;;;4.80;99.90;;;;;;5094691;28;20036;-67
2022/01/07 09:17:52;;;;;;;29.23;20.13;;;4.90;99.90;;;;;;5094481;28;20040;-68
2022/01/07 09:20:17;;;;;;;28.17;17.77;;;4.90;99.90;;;;;;5095063;28;20494;-68
2022/01/07 09:22:43;;;;;;;31.35;19.40;;;4.90;99.90;;;;;;5094776;28;20039;-66
2022/01/07 09:25:09;;;;;;;32.97;20.45;;;5.00;99.90;;;;;;5098495;28;20047;-67
2022/01/07 09:27:36;;;;;;;30.90;19.80;;;5.00;99.90;;;;;;5109094;28;20039;-67
2022/01/07 09:30:03;;;;;;;35.85;19.38;;;5.00;99.90;;;;;;5115045;28;20063;-69
2022/01/07 09:32:28;;;;;;;33.58;21.10;;;5.00;99.90;;;;;;5114237;28;20036;-66
2022/01/07 09:34:54;;;;;;;34.55;19.83;;;5.00;99.90;;;;;;5115053;28;20046;-67
2022/01/07 09:37:19;;;;;;;28.60;20.20;;;5.00;99.90;;;;;;5114248;28;20392;-67
2022/01/07 09:39:45;;;;;;;38.20;20.95;;;5.00;99.90;;;;;;5114742;28;20028;-67
2022/01/07 09:42:10;;;;;;;32.92;20.70;;;5.10;99.90;;;;;;5114820;28;20071;-67
2022/01/07 09:44:43;;;;;;;30.27;21.08;;;5.10;99.90;;;;;;5114690;28;20095;-67
2022/01/07 09:47:11;;;;;;;34.38;21.10;;;5.10;99.90;;;;;;5114201;28;20040;-67
2022/01/07 09:49:37;;;;;;;33.53;20.13;;;5.10;99.90;;;;;;5114645;28;20047;-67
2022/01/07 09:52:04;;;;;;;31.42;19.58;;;5.00;99.90;;;;;;5114206;28;20396;-67
2022/01/07 09:54:32;;;;;;;33.85;21.08;;;5.10;99.90;;;;;;5114813;28;20479;-66
2022/01/07 09:56:58;;;;;;;35.88;20.95;;;5.10;99.90;;;;;;5113906;28;20110;-67
2022/01/07 09:59:23;;;;;;;29.67;19.40;;;5.30;99.90;;;;;;5113111;28;20553;-67
2022/01/07 10:02:09;;;;;;;38.95;20.73;;;5.30;99.90;;;;;;5114300;28;20027;-66
2022/01/07 10:04:41;;;;;;;32.17;20.38;;;5.40;99.90;;;;;;5114639;28;20085;-67
2022/01/07 10:07:24;;;;;;;32.97;18.88;;;5.50;99.90;;;;;;5113572;28;20491;-67
2022/01/07 10:10:05;;;;;;;36.78;19.10;;;5.60;99.90;;;;;;5114498;28;20042;-67
2022/01/07 10:12:48;;;;;;;22.73;15.68;;;5.50;99.90;;;;;;5114036;28;20040;-66
2022/01/07 10:15:15;;;;;;;13.90;9.98;;;5.60;99.90;;;;;;5102449;28;20036;-66
2022/01/07 10:17:42;;;;;;;12.50;8.43;;;5.50;99.90;;;;;;5101341;28;20043;-67
2022/01/07 10:20:13;;;;;;;11.73;7.80;;;5.40;99.90;;;;;;5099678;28;20036;-68
2022/01/07 10:22:55;;;;;;;10.27;5.50;;;5.30;99.90;;;;;;5111196;28;20032;-67
2022/01/07 10:25:26;;;;;;;7.43;2.90;;;5.20;99.90;;;;;;5114466;28;20061;-66
2022/01/07 10:27:57;;;;;;;8.25;2.67;;;5.10;99.90;;;;;;5113651;28;20118;-66
2022/01/07 10:30:26;;;;;;;11.85;4.03;;;4.90;99.90;;;;;;5112684;28;20078;-67
2022/01/07 10:32:56;;;;;;;12.73;6.97;;;4.90;99.90;;;;;;5112652;28;20032;-67
2022/01/07 10:35:25;;;;;;;12.90;8.38;;;4.90;99.90;;;;;;5113905;28;20036;-67
2022/01/07 10:38:00;;;;;;;13.70;9.82;;;4.90;99.90;;;;;;5110262;28;20127;-67
2022/01/07 10:40:34;;;;;;;19.70;11.13;;;4.90;99.90;;;;;;5101642;28;20093;-66
2022/01/07 10:43:18;;;;;;;16.55;10.82;;;5.00;99.90;;;;;;5102553;28;20047;-66
2022/01/07 10:46:06;;;;;;;16.42;10.57;;;5.00;99.90;;;;;;5113711;28;20069;-66
2022/01/07 10:48:42;;;;;;;16.58;10.15;;;5.10;99.90;;;;;;5102960;28;20126;-66
2022/01/07 10:51:10;;;;;;;18.23;9.05;;;5.20;99.90;;;;;;5113622;28;20446;-67
2022/01/07 10:53:37;;;;;;;16.30;8.23;;;5.20;99.90;;;;;;5113705;28;20463;-66
2022/01/07 10:56:10;;;;;;;10.77;6.70;;;5.40;99.90;;;;;;5113459;28;20035;-67
2022/01/07 10:58:55;;;;;;;11.63;3.50;;;5.40;99.90;;;;;;5104172;28;20098;-66
2022/01/07 11:01:20;;;;;;;9.65;3.72;;;5.50;99.90;;;;;;5093800;28;20083;-67
2022/01/07 11:03:51;;;;;;;10.82;4.38;;;5.50;99.90;;;;;;5108749;28;20089;-67
2022/01/07 11:06:17;;;;;;;5.20;2.65;;;5.60;99.90;;;;;;5113079;28;20387;-66
2022/01/07 11:08:43;;;;;;;5.20;2.80;;;5.60;99.90;;;;;;5104155;28;20601;-66
2022/01/07 11:11:11;;;;;;;6.50;2.83;;;5.50;99.90;;;;;;5102122;28;20108;-67
2022/01/07 11:13:38;;;;;;;5.85;2.80;;;5.50;99.90;;;;;;5103597;28;20038;-67
2022/01/07 11:16:05;;;;;;;6.10;3.67;;;5.50;99.90;;;;;;5110600;28;20044;-67
2022/01/07 11:18:32;;;;;;;8.55;4.10;;;5.50;99.90;;;;;;5106490;28;20047;-68
2022/01/07 11:21:01;;;;;;;10.60;4.40;;;5.50;99.90;;;;;;5093489;28;20496;-67
2022/01/07 11:23:28;;;;;;;7.90;4.60;;;5.40;99.90;;;;;;5093288;28;20040;-67
2022/01/07 11:26:04;;;;;;;8.88;4.50;;;5.40;99.90;;;;;;5092536;28;20082;-67
2022/01/07 11:28:30;;;;;;;5.82;4.30;;;5.40;99.90;;;;;;5109525;28;20048;-67
2022/01/07 11:31:15;;;;;;;9.02;4.05;;;5.40;99.90;;;;;;5113367;28;20031;-67
2022/01/07 11:33:41;;;;;;;7.22;5.15;;;5.40;99.90;;;;;;5108429;28;20118;-67
2022/01/07 11:36:11;;;;;;;11.02;6.90;;;5.30;99.90;;;;;;5116172;28;20035;-67
2022/01/07 11:38:46;;;;;;;14.55;6.85;;;5.30;99.90;;;;;;5117232;28;20094;-67
2022/01/07 11:41:41;;;;;;;14.10;7.00;;;5.30;99.90;;;;;;5113348;28;20046;-67
2022/01/07 11:44:20;;;;;;;13.95;7.53;;;5.20;99.90;;;;;;5108188;28;20135;-67
2022/01/07 11:46:45;;;;;;;14.65;7.57;;;5.20;99.90;;;;;;5115279;28;20039;-67
2022/01/07 11:49:35;;;;;;;18.48;7.85;;;5.30;99.90;;;;;;5113117;28;20031;-67
2022/01/07 11:52:30;;;;;;;15.80;8.43;;;5.30;99.90;;;;;;5104302;28;20115;-68
2022/01/07 11:55:23;;;;;;;11.70;7.22;;;5.30;99.90;;;;;;5098227;28;20039;-67
2022/01/07 11:57:54;;;;;;;13.02;8.68;;;5.30;99.90;;;;;;5106496;28;20047;-66
2022/01/07 12:00:59;;;;;;;14.27;8.48;;;5.30;99.90;;;;;;5116792;28;20114;-67
2022/01/07 12:03:34;;;;;;;16.70;9.30;;;5.30;99.90;;;;;;5116325;28;20043;-67
2022/01/07 12:06:20;;;;;;;14.57;8.35;;;5.30;99.90;;;;;;5117152;28;20040;-67
2022/01/07 12:08:58;;;;;;;18.25;10.30;;;5.30;99.90;;;;;;5116939;28;20047;-67
2022/01/07 12:11:36;;;;;;;15.98;9.68;;;5.30;99.90;;;;;;5117115;28;20074;-68
2022/01/07 12:14:06;;;;;;;19.33;11.00;;;5.30;99.90;;;;;;5116253;28;20043;-66
2022/01/07 12:16:33;;;;;;;19.50;10.45;;;5.30;99.90;;;;;;5116183;28;20410;-67
2022/01/07 12:19:28;;;;;;;24.33;11.48;;;5.30;99.90;;;;;;5115741;28;20464;-67
2022/01/07 12:21:58;;;;;;;16.40;10.38;;;5.30;99.90;;;;;;5097754;28;20403;-68
2022/01/07 12:24:31;;;;;;;20.08;11.57;;;5.30;99.90;;;;;;5116898;28;20073;-68
2022/01/07 12:27:07;;;;;;;22.88;11.60;;;5.30;99.90;;;;;;5115764;28;20063;-67
2022/01/07 12:29:35;;;;;;;17.80;10.85;;;5.30;99.90;;;;;;5116305;28;20043;-69
2022/01/07 12:32:03;;;;;;;20.73;11.50;;;5.30;99.90;;;;;;5114856;28;20047;-67
2022/01/07 12:34:34;;;;;;;23.20;11.82;;;5.30;99.90;;;;;;5115005;28;20047;-67
2022/01/07 12:37:05;;;;;;;19.50;10.88;;;5.40;99.90;;;;;;5114990;28;20047;-67
2022/01/07 12:39:37;;;;;;;17.67;9.98;;;5.50;99.90;;;;;;5115991;28;20084;-67
2022/01/07 12:42:04;;;;;;;17.38;11.13;;;5.40;99.90;;;;;;5115803;28;20040;-66
2022/01/07 12:44:35;;;;;;;14.07;8.75;;;5.40;99.90;;;;;;5115688;28;20122;-67
2022/01/07 12:47:01;;;;;;;10.05;6.00;;;5.30;99.90;;;;;;5110289;28;20040;-67
2022/01/07 12:49:42;;;;;;;10.82;5.13;;;5.30;99.90;;;;;;5108747;28;20040;-67
2022/01/07 12:52:19;;;;;;;10.45;4.25;;;5.30;99.90;;;;;;5114221;28;20044;-67